sensor_id;sensor_type;location;lat;lon;timestamp;pressure;altitude;pressure_sealevel;temperature;humidity
69630;BME280;56857;52.212;5.496;2022-09-30T00:01:30;100852.44;;;7.23;92.04
69630;BME280;56857;52.212;5.496;2022-09-30T00:03:56;100846.47;;;7.21;92.05
69630;BME280;56857;52.212;5.496;2022-09-30T00:06:23;100851.59;;;7.23;92.15
69630;BME280;56857;52.212;5.496;2022-09-30T00:08:48;100859.50;;;7.23;92.14
69630;BME280;56857;52.212;5.496;2022-09-30T00:11:17;100852.84;;;7.18;91.97
69630;BME280;56857;52.212;5.496;2022-09-30T00:13:44;100855.47;;;7.18;91.98
69630;BME280;56857;52.212;5.496;2022-09-30T00:16:12;100857.47;;;7.16;91.98
69630;BME280;56857;52.212;5.496;2022-09-30T00:18:38;100852.31;;;7.15;91.91
69630;BME280;56857;52.212;5.496;2022-09-30T00:21:05;100856.91;;;7.13;91.81
69630;BME280;56857;52.212;5.496;2022-09-30T00:23:31;100854.41;;;7.11;91.81
69630;BME280;56857;52.212;5.496;2022-09-30T00:25:58;100852.06;;;7.08;91.72
69630;BME280;56857;52.212;5.496;2022-09-30T00:28:23;100849.59;;;7.07;91.86
69630;BME280;56857;52.212;5.496;2022-09-30T00:30:49;100854.34;;;7.03;91.93
69630;BME280;56857;52.212;5.496;2022-09-30T00:33:14;100858.22;;;6.99;91.92
69630;BME280;56857;52.212;5.496;2022-09-30T00:35:39;100865.59;;;6.95;92.27
69630;BME280;56857;52.212;5.496;2022-09-30T00:38:05;100857.97;;;6.92;92.37
69630;BME280;56857;52.212;5.496;2022-09-30T00:40:30;100858.97;;;6.91;92.26
69630;BME280;56857;52.212;5.496;2022-09-30T00:42:56;100866.16;;;6.89;92.05
69630;BME280;56857;52.212;5.496;2022-09-30T00:45:21;100852.16;;;6.89;92.17
69630;BME280;56857;52.212;5.496;2022-09-30T00:47:56;100860.22;;;6.87;92.30
69630;BME280;56857;52.212;5.496;2022-09-30T00:55:43;100870.78;;;6.87;92.56
69630;BME280;56857;52.212;5.496;2022-09-30T00:58:14;100869.78;;;6.88;92.32
69630;BME280;56857;52.212;5.496;2022-09-30T01:00:40;100871.06;;;6.84;92.55
69630;BME280;56857;52.212;5.496;2022-09-30T01:03:06;100869.53;;;6.82;92.70
69630;BME280;56857;52.212;5.496;2022-09-30T01:05:32;100858.47;;;6.78;92.81
69630;BME280;56857;52.212;5.496;2022-09-30T01:07:59;100864.56;;;6.79;92.75
69630;BME280;56857;52.212;5.496;2022-09-30T01:10:26;100865.38;;;6.79;92.79
69630;BME280;56857;52.212;5.496;2022-09-30T01:12:52;100869.13;;;6.77;92.65
69630;BME280;56857;52.212;5.496;2022-09-30T01:15:20;100865.38;;;6.79;92.55
69630;BME280;56857;52.212;5.496;2022-09-30T01:23:46;100859.28;;;6.79;92.47
69630;BME280;56857;52.212;5.496;2022-09-30T01:31:55;100856.13;;;6.75;92.25
69630;BME280;56857;52.212;5.496;2022-09-30T01:34:29;100855.41;;;6.73;92.22
69630;BME280;56857;52.212;5.496;2022-09-30T01:37:32;100862.63;;;6.71;92.37
69630;BME280;56857;52.212;5.496;2022-09-30T01:40:03;100865.41;;;6.69;92.45
69630;BME280;56857;52.212;5.496;2022-09-30T01:42:46;100875.53;;;6.64;92.88
69630;BME280;56857;52.212;5.496;2022-09-30T01:45:19;100875.16;;;6.59;93.18
69630;BME280;56857;52.212;5.496;2022-09-30T01:48:07;100881.66;;;6.55;93.31
69630;BME280;56857;52.212;5.496;2022-09-30T01:50:44;100883.75;;;6.52;93.38
69630;BME280;56857;52.212;5.496;2022-09-30T01:53:30;100880.16;;;6.53;93.33
69630;BME280;56857;52.212;5.496;2022-09-30T01:56:16;100878.19;;;6.55;93.26
69630;BME280;56857;52.212;5.496;2022-09-30T02:01:24;100882.78;;;6.53;93.47
69630;BME280;56857;52.212;5.496;2022-09-30T02:03:54;100877.66;;;6.51;93.56
69630;BME280;56857;52.212;5.496;2022-09-30T02:06:25;100878.34;;;6.53;93.39
69630;BME280;56857;52.212;5.496;2022-09-30T02:08:57;100876.66;;;6.52;93.39
69630;BME280;56857;52.212;5.496;2022-09-30T02:11:25;100882.63;;;6.54;93.51
69630;BME280;56857;52.212;5.496;2022-09-30T02:14:03;100881.00;;;6.53;93.50
69630;BME280;56857;52.212;5.496;2022-09-30T02:16:38;100877.66;;;6.51;93.39
69630;BME280;56857;52.212;5.496;2022-09-30T02:19:18;100881.28;;;6.50;93.25
69630;BME280;56857;52.212;5.496;2022-09-30T02:21:52;100878.75;;;6.48;93.10
69630;BME280;56857;52.212;5.496;2022-09-30T02:24:21;100876.28;;;6.47;93.26
69630;BME280;56857;52.212;5.496;2022-09-30T02:26:49;100884.47;;;6.44;93.08
69630;BME280;56857;52.212;5.496;2022-09-30T02:29:21;100883.38;;;6.46;93.14
69630;BME280;56857;52.212;5.496;2022-09-30T02:31:51;100883.38;;;6.46;93.15
69630;BME280;56857;52.212;5.496;2022-09-30T02:34:24;100885.13;;;6.46;93.20
69630;BME280;56857;52.212;5.496;2022-09-30T02:37:00;100886.13;;;6.45;93.41
69630;BME280;56857;52.212;5.496;2022-09-30T02:39:52;100887.50;;;6.39;93.58
69630;BME280;56857;52.212;5.496;2022-09-30T02:42:21;100887.66;;;6.38;93.57
69630;BME280;56857;52.212;5.496;2022-09-30T02:44:50;100887.41;;;6.31;94.05
69630;BME280;56857;52.212;5.496;2022-09-30T02:49:51;100879.34;;;6.33;93.91
69630;BME280;56857;52.212;5.496;2022-09-30T02:52:28;100883.66;;;6.34;93.83
69630;BME280;56857;52.212;5.496;2022-09-30T02:55:42;100880.34;;;6.32;94.29
69630;BME280;56857;52.212;5.496;2022-09-30T02:58:13;100885.16;;;6.26;94.04
69630;BME280;56857;52.212;5.496;2022-09-30T03:00:40;100893.50;;;6.22;94.02
69630;BME280;56857;52.212;5.496;2022-09-30T03:03:17;100894.59;;;6.19;94.22
69630;BME280;56857;52.212;5.496;2022-09-30T03:05:44;100891.69;;;6.22;94.18
69630;BME280;56857;52.212;5.496;2022-09-30T03:08:10;100886.72;;;6.19;93.93
69630;BME280;56857;52.212;5.496;2022-09-30T03:10:36;100889.34;;;6.19;94.01
69630;BME280;56857;52.212;5.496;2022-09-30T03:13:18;100891.81;;;6.21;93.86
69630;BME280;56857;52.212;5.496;2022-09-30T03:16:00;100890.88;;;6.22;93.79
69630;BME280;56857;52.212;5.496;2022-09-30T03:27:12;100897.94;;;6.12;93.96
69630;BME280;56857;52.212;5.496;2022-09-30T03:29:57;100893.50;;;6.12;93.66
69630;BME280;56857;52.212;5.496;2022-09-30T03:37:57;100911.22;;;6.10;93.41
69630;BME280;56857;52.212;5.496;2022-09-30T03:40:30;100914.84;;;6.09;93.24
69630;BME280;56857;52.212;5.496;2022-09-30T03:43:05;100918.56;;;6.07;93.32
69630;BME280;56857;52.212;5.496;2022-09-30T03:45:46;100924.13;;;6.03;93.46
69630;BME280;56857;52.212;5.496;2022-09-30T03:48:17;100920.09;;;5.99;93.70
69630;BME280;56857;52.212;5.496;2022-09-30T03:50:44;100925.38;;;5.99;93.62
69630;BME280;56857;52.212;5.496;2022-09-30T03:53:11;100927.28;;;5.97;93.44
69630;BME280;56857;52.212;5.496;2022-09-30T03:55:49;100929.09;;;5.97;93.53
69630;BME280;56857;52.212;5.496;2022-09-30T03:58:17;100937.66;;;5.99;93.63
69630;BME280;56857;52.212;5.496;2022-09-30T04:00:51;100931.03;;;5.95;93.60
69630;BME280;56857;52.212;5.496;2022-09-30T04:03:18;100941.56;;;5.95;93.70
69630;BME280;56857;52.212;5.496;2022-09-30T04:05:44;100931.72;;;5.97;93.37
69630;BME280;56857;52.212;5.496;2022-09-30T04:08:10;100934.47;;;5.95;93.49
69630;BME280;56857;52.212;5.496;2022-09-30T04:10:37;100938.78;;;5.96;93.44
69630;BME280;56857;52.212;5.496;2022-09-30T04:13:03;100943.22;;;5.96;93.51
69630;BME280;56857;52.212;5.496;2022-09-30T04:15:28;100942.53;;;5.94;93.57
69630;BME280;56857;52.212;5.496;2022-09-30T04:17:54;100942.75;;;5.91;93.62
69630;BME280;56857;52.212;5.496;2022-09-30T04:20:19;100946.22;;;5.91;93.36
69630;BME280;56857;52.212;5.496;2022-09-30T04:22:44;100943.75;;;5.90;93.37
69630;BME280;56857;52.212;5.496;2022-09-30T04:25:10;100951.50;;;5.91;93.04
69630;BME280;56857;52.212;5.496;2022-09-30T04:27:35;100941.22;;;5.88;93.31
69630;BME280;56857;52.212;5.496;2022-09-30T04:30:00;100957.03;;;5.88;93.27
69630;BME280;56857;52.212;5.496;2022-09-30T04:32:26;100953.41;;;5.89;93.40
69630;BME280;56857;52.212;5.496;2022-09-30T04:34:51;100951.19;;;5.85;93.21
69630;BME280;56857;52.212;5.496;2022-09-30T04:37:17;100961.84;;;5.83;93.11
69630;BME280;56857;52.212;5.496;2022-09-30T04:39:42;100958.38;;;5.82;93.32
69630;BME280;56857;52.212;5.496;2022-09-30T04:42:07;100962.25;;;5.78;93.19
69630;BME280;56857;52.212;5.496;2022-09-30T04:44:32;100959.63;;;5.78;93.24
69630;BME280;56857;52.212;5.496;2022-09-30T04:46:58;100962.97;;;5.80;93.12
69630;BME280;56857;52.212;5.496;2022-09-30T04:49:23;100964.75;;;5.80;93.39
69630;BME280;56857;52.212;5.496;2022-09-30T04:51:49;100959.06;;;5.75;93.30
69630;BME280;56857;52.212;5.496;2022-09-30T04:54:14;100961.28;;;5.79;93.23
69630;BME280;56857;52.212;5.496;2022-09-30T04:56:40;100949.53;;;5.74;92.99
69630;BME280;56857;52.212;5.496;2022-09-30T04:59:06;100953.00;;;5.74;92.70
69630;BME280;56857;52.212;5.496;2022-09-30T05:01:31;100953.09;;;5.73;93.08
69630;BME280;56857;52.212;5.496;2022-09-30T05:03:56;100958.09;;;5.76;93.08
69630;BME280;56857;52.212;5.496;2022-09-30T05:06:22;100961.72;;;5.75;93.17
69630;BME280;56857;52.212;5.496;2022-09-30T05:08:47;100969.59;;;5.75;93.08
69630;BME280;56857;52.212;5.496;2022-09-30T05:11:18;100966.13;;;5.74;93.13
69630;BME280;56857;52.212;5.496;2022-09-30T05:13:44;100963.63;;;5.73;93.19
69630;BME280;56857;52.212;5.496;2022-09-30T05:16:10;100965.69;;;5.69;93.33
69630;BME280;56857;52.212;5.496;2022-09-30T05:18:37;100970.97;;;5.69;93.59
69630;BME280;56857;52.212;5.496;2022-09-30T05:21:02;100965.97;;;5.66;93.59
69630;BME280;56857;52.212;5.496;2022-09-30T05:23:29;100973.88;;;5.66;93.67
69630;BME280;56857;52.212;5.496;2022-09-30T05:25:56;100980.09;;;5.65;93.43
69630;BME280;56857;52.212;5.496;2022-09-30T05:28:22;100987.97;;;5.65;93.35
69630;BME280;56857;52.212;5.496;2022-09-30T05:30:48;100981.03;;;5.64;93.22
69630;BME280;56857;52.212;5.496;2022-09-30T05:33:13;100982.72;;;5.65;93.29
69630;BME280;56857;52.212;5.496;2022-09-30T05:35:39;100979.66;;;5.60;93.25
69630;BME280;56857;52.212;5.496;2022-09-30T05:38:05;100990.88;;;5.62;93.28
69630;BME280;56857;52.212;5.496;2022-09-30T05:40:31;100998.63;;;5.64;93.08
69630;BME280;56857;52.212;5.496;2022-09-30T05:42:57;100997.78;;;5.63;93.16
69630;BME280;56857;52.212;5.496;2022-09-30T05:45:24;100988.50;;;5.59;93.32
69630;BME280;56857;52.212;5.496;2022-09-30T05:47:53;100983.00;;;5.62;93.28
69630;BME280;56857;52.212;5.496;2022-09-30T05:50:20;100990.06;;;5.62;93.29
69630;BME280;56857;52.212;5.496;2022-09-30T05:52:46;101005.84;;;5.62;93.01
69630;BME280;56857;52.212;5.496;2022-09-30T05:55:11;100988.63;;;5.57;93.12
69630;BME280;56857;52.212;5.496;2022-09-30T05:57:37;101003.72;;;5.55;93.18
69630;BME280;56857;52.212;5.496;2022-09-30T06:00:03;100985.84;;;5.49;93.08
69630;BME280;56857;52.212;5.496;2022-09-30T06:02:29;100996.78;;;5.54;93.22
69630;BME280;56857;52.212;5.496;2022-09-30T06:04:54;100994.41;;;5.51;93.45
69630;BME280;56857;52.212;5.496;2022-09-30T06:07:19;101009.09;;;5.54;93.39
69630;BME280;56857;52.212;5.496;2022-09-30T06:09:45;101010.09;;;5.53;93.39
69630;BME280;56857;52.212;5.496;2022-09-30T06:12:10;101014.50;;;5.52;93.54
69630;BME280;56857;52.212;5.496;2022-09-30T06:14:36;101012.00;;;5.51;93.50
69630;BME280;56857;52.212;5.496;2022-09-30T06:17:02;101000.91;;;5.47;93.71
69630;BME280;56857;52.212;5.496;2022-09-30T06:19:28;101013.09;;;5.48;93.96
69630;BME280;56857;52.212;5.496;2022-09-30T06:21:53;101021.84;;;5.49;93.84
69630;BME280;56857;52.212;5.496;2022-09-30T06:24:19;101019.22;;;5.49;94.10
69630;BME280;56857;52.212;5.496;2022-09-30T06:26:45;101007.16;;;5.46;94.24
69630;BME280;56857;52.212;5.496;2022-09-30T06:29:10;101021.69;;;5.50;94.16
69630;BME280;56857;52.212;5.496;2022-09-30T06:31:36;101013.94;;;5.49;94.42
69630;BME280;56857;52.212;5.496;2022-09-30T06:34:01;101007.84;;;5.48;94.41
69630;BME280;56857;52.212;5.496;2022-09-30T06:36:27;101020.44;;;5.54;94.56
69630;BME280;56857;52.212;5.496;2022-09-30T06:38:52;101017.16;;;5.52;94.79
69630;BME280;56857;52.212;5.496;2022-09-30T06:41:18;101021.88;;;5.58;94.72
69630;BME280;56857;52.212;5.496;2022-09-30T06:43:43;101016.63;;;5.58;94.98
69630;BME280;56857;52.212;5.496;2022-09-30T06:46:08;101024.25;;;5.62;94.93
69630;BME280;56857;52.212;5.496;2022-09-30T06:48:34;101027.56;;;5.64;95.03
69630;BME280;56857;52.212;5.496;2022-09-30T06:50:59;101020.38;;;5.66;95.27
69630;BME280;56857;52.212;5.496;2022-09-30T06:53:24;101026.34;;;5.68;95.27
69630;BME280;56857;52.212;5.496;2022-09-30T06:55:54;101022.59;;;5.70;95.51
69630;BME280;56857;52.212;5.496;2022-09-30T06:58:20;101026.75;;;5.73;95.69
69630;BME280;56857;52.212;5.496;2022-09-30T07:01:04;101035.22;;;5.76;96.22
69630;BME280;56857;52.212;5.496;2022-09-30T07:03:31;101037.31;;;5.82;97.05
69630;BME280;56857;52.212;5.496;2022-09-30T07:05:58;101041.34;;;5.87;96.90
69630;BME280;56857;52.212;5.496;2022-09-30T07:08:25;101034.16;;;5.89;96.94
69630;BME280;56857;52.212;5.496;2022-09-30T07:10:51;101034.72;;;5.92;97.20
69630;BME280;56857;52.212;5.496;2022-09-30T07:13:17;101024.66;;;5.97;97.44
69630;BME280;56857;52.212;5.496;2022-09-30T07:15:42;101026.75;;;6.03;97.71
69630;BME280;56857;52.212;5.496;2022-09-30T07:18:08;101036.84;;;6.08;97.81
69630;BME280;56857;52.212;5.496;2022-09-30T07:20:33;101038.81;;;6.16;98.06
69630;BME280;56857;52.212;5.496;2022-09-30T07:22:58;101024.28;;;6.21;98.25
69630;BME280;56857;52.212;5.496;2022-09-30T07:25:24;101028.75;;;6.31;98.73
69630;BME280;56857;52.212;5.496;2022-09-30T07:27:49;101027.06;;;6.39;98.89
69630;BME280;56857;52.212;5.496;2022-09-30T07:30:15;101024.31;;;6.50;99.33
69630;BME280;56857;52.212;5.496;2022-09-30T07:32:40;101027.66;;;6.62;100.00
69630;BME280;56857;52.212;5.496;2022-09-30T07:35:06;101018.47;;;6.76;100.00
69630;BME280;56857;52.212;5.496;2022-09-30T07:37:31;101022.19;;;6.93;100.00
69630;BME280;56857;52.212;5.496;2022-09-30T07:39:57;101021.75;;;7.07;100.00
69630;BME280;56857;52.212;5.496;2022-09-30T07:42:22;101025.91;;;7.19;100.00
69630;BME280;56857;52.212;5.496;2022-09-30T07:44:48;101023.22;;;7.29;100.00
69630;BME280;56857;52.212;5.496;2022-09-30T07:47:14;101031.66;;;7.42;100.00
69630;BME280;56857;52.212;5.496;2022-09-30T07:49:41;101022.88;;;7.52;100.00
69630;BME280;56857;52.212;5.496;2022-09-30T07:52:07;101021.72;;;7.64;100.00
69630;BME280;56857;52.212;5.496;2022-09-30T07:54:34;101023.47;;;7.73;100.00
69630;BME280;56857;52.212;5.496;2022-09-30T07:57:02;101023.25;;;7.84;100.00
69630;BME280;56857;52.212;5.496;2022-09-30T07:59:29;101019.63;;;7.95;100.00
69630;BME280;56857;52.212;5.496;2022-09-30T08:01:55;101017.75;;;8.05;100.00
69630;BME280;56857;52.212;5.496;2022-09-30T08:04:21;101018.38;;;8.17;100.00
69630;BME280;56857;52.212;5.496;2022-09-30T08:06:50;101017.16;;;8.29;100.00
69630;BME280;56857;52.212;5.496;2022-09-30T08:09:17;101009.22;;;8.39;100.00
69630;BME280;56857;52.212;5.496;2022-09-30T08:11:43;101013.59;;;8.48;100.00
69630;BME280;56857;52.212;5.496;2022-09-30T08:14:13;101009.88;;;8.59;100.00
69630;BME280;56857;52.212;5.496;2022-09-30T08:16:39;101009.78;;;8.69;100.00
69630;BME280;56857;52.212;5.496;2022-09-30T08:19:04;101013.03;;;8.80;100.00
69630;BME280;56857;52.212;5.496;2022-09-30T08:21:30;101011.28;;;8.89;100.00
69630;BME280;56857;52.212;5.496;2022-09-30T08:23:56;101012.00;;;8.99;100.00
69630;BME280;56857;52.212;5.496;2022-09-30T08:26:22;101020.53;;;9.11;100.00
69630;BME280;56857;52.212;5.496;2022-09-30T08:28:47;101026.03;;;9.26;100.00
69630;BME280;56857;52.212;5.496;2022-09-30T08:31:15;101019.00;;;9.35;100.00
69630;BME280;56857;52.212;5.496;2022-09-30T08:33:41;101030.16;;;9.46;100.00
69630;BME280;56857;52.212;5.496;2022-09-30T08:36:21;101024.56;;;9.58;100.00
69630;BME280;56857;52.212;5.496;2022-09-30T08:38:47;101017.03;;;9.71;100.00
69630;BME280;56857;52.212;5.496;2022-09-30T08:51:50;101020.88;;;10.35;100.00
69630;BME280;56857;52.212;5.496;2022-09-30T08:54:20;101024.88;;;10.48;100.00
69630;BME280;56857;52.212;5.496;2022-09-30T08:56:47;101021.88;;;10.59;100.00
69630;BME280;56857;52.212;5.496;2022-09-30T08:59:33;101022.06;;;10.74;100.00
69630;BME280;56857;52.212;5.496;2022-09-30T09:02:14;101029.34;;;10.88;100.00
69630;BME280;56857;52.212;5.496;2022-09-30T09:04:41;101021.88;;;11.00;100.00
69630;BME280;56857;52.212;5.496;2022-09-30T09:07:16;101033.63;;;11.13;100.00
69630;BME280;56857;52.212;5.496;2022-09-30T09:12:59;101031.59;;;11.40;100.00
69630;BME280;56857;52.212;5.496;2022-09-30T09:21:19;101043.22;;;11.78;100.00
69630;BME280;56857;52.212;5.496;2022-09-30T09:23:56;101038.25;;;11.92;100.00
69630;BME280;56857;52.212;5.496;2022-09-30T09:26:24;101029.72;;;12.04;100.00
69630;BME280;56857;52.212;5.496;2022-09-30T09:29:19;101032.44;;;12.19;100.00
69630;BME280;56857;52.212;5.496;2022-09-30T09:31:46;101031.34;;;12.37;100.00
69630;BME280;56857;52.212;5.496;2022-09-30T09:34:12;101019.56;;;12.54;100.00
69630;BME280;56857;52.212;5.496;2022-09-30T09:42:42;101018.47;;;13.24;96.34
69630;BME280;56857;52.212;5.496;2022-09-30T09:45:27;101026.69;;;13.37;95.42
69630;BME280;56857;52.212;5.496;2022-09-30T09:47:54;101015.75;;;13.47;95.02
69630;BME280;56857;52.212;5.496;2022-09-30T09:50:35;101026.13;;;13.57;94.81
69630;BME280;56857;52.212;5.496;2022-09-30T09:55:48;101025.47;;;13.55;92.80
69630;BME280;56857;52.212;5.496;2022-09-30T09:58:18;101020.88;;;13.63;92.84
69630;BME280;56857;52.212;5.496;2022-09-30T10:00:43;101023.25;;;13.73;92.50
69630;BME280;56857;52.212;5.496;2022-09-30T10:03:12;101019.09;;;13.85;92.05
69630;BME280;56857;52.212;5.496;2022-09-30T10:05:38;101021.03;;;13.91;91.54
69630;BME280;56857;52.212;5.496;2022-09-30T10:10:42;101028.88;;;14.14;90.11
69630;BME280;56857;52.212;5.496;2022-09-30T10:13:15;101019.19;;;14.28;89.79
69630;BME280;56857;52.212;5.496;2022-09-30T10:15:42;101025.47;;;14.42;89.70
69630;BME280;56857;52.212;5.496;2022-09-30T10:18:34;101021.56;;;14.59;88.69
69630;BME280;56857;52.212;5.496;2022-09-30T10:21:04;101022.94;;;14.77;87.89
69630;BME280;56857;52.212;5.496;2022-09-30T10:23:38;101024.66;;;14.84;85.99
69630;BME280;56857;52.212;5.496;2022-09-30T10:28:56;101029.56;;;14.81;83.30
69630;BME280;56857;52.212;5.496;2022-09-30T10:31:27;101017.63;;;14.77;83.55
69630;BME280;56857;52.212;5.496;2022-09-30T10:34:17;101019.09;;;14.79;83.98
69630;BME280;56857;52.212;5.496;2022-09-30T10:36:46;101022.19;;;14.83;83.04
69630;BME280;56857;52.212;5.496;2022-09-30T10:39:31;101010.31;;;14.86;82.81
69630;BME280;56857;52.212;5.496;2022-09-30T10:42:02;101016.06;;;14.89;81.85
69630;BME280;56857;52.212;5.496;2022-09-30T10:44:29;101018.16;;;14.94;80.75
69630;BME280;56857;52.212;5.496;2022-09-30T10:47:00;101014.09;;;14.98;80.18
69630;BME280;56857;52.212;5.496;2022-09-30T10:49:34;101012.88;;;15.00;79.92
69630;BME280;56857;52.212;5.496;2022-09-30T10:52:02;101020.31;;;15.05;79.86
69630;BME280;56857;52.212;5.496;2022-09-30T10:54:48;101012.53;;;15.10;79.39
69630;BME280;56857;52.212;5.496;2022-09-30T10:57:22;101004.72;;;15.09;78.81
69630;BME280;56857;52.212;5.496;2022-09-30T10:59:50;101006.56;;;15.08;77.76
69630;BME280;56857;52.212;5.496;2022-09-30T11:15:16;100986.81;;;15.37;76.33
69630;BME280;56857;52.212;5.496;2022-09-30T11:18:17;100992.19;;;15.44;76.25
69630;BME280;56857;52.212;5.496;2022-09-30T11:21:11;100989.38;;;15.52;75.54
69630;BME280;56857;52.212;5.496;2022-09-30T11:26:56;100994.47;;;15.47;74.66
69630;BME280;56857;52.212;5.496;2022-09-30T11:38:00;100978.94;;;15.64;73.04
69630;BME280;56857;52.212;5.496;2022-09-30T11:40:52;100987.41;;;15.67;72.60
69630;BME280;56857;52.212;5.496;2022-09-30T11:46:09;100977.97;;;15.78;71.22
69630;BME280;56857;52.212;5.496;2022-09-30T11:48:56;100970.00;;;15.85;71.20
69630;BME280;56857;52.212;5.496;2022-09-30T11:59:52;100964.28;;;16.08;69.59
69630;BME280;56857;52.212;5.496;2022-09-30T12:05:21;100958.75;;;16.09;69.81
69630;BME280;56857;52.212;5.496;2022-09-30T12:08:02;100948.88;;;16.30;70.42
69630;BME280;56857;52.212;5.496;2022-09-30T12:10:33;100962.72;;;16.53;70.23
69630;BME280;56857;52.212;5.496;2022-09-30T12:16:24;100947.88;;;16.64;68.44
69630;BME280;56857;52.212;5.496;2022-09-30T12:19:02;100946.03;;;16.44;67.95
69630;BME280;56857;52.212;5.496;2022-09-30T12:21:35;100948.69;;;16.31;67.87
69630;BME280;56857;52.212;5.496;2022-09-30T12:24:12;100949.69;;;16.17;68.67
69630;BME280;56857;52.212;5.496;2022-09-30T12:26:41;100946.81;;;15.98;68.58
69630;BME280;56857;52.212;5.496;2022-09-30T12:29:28;100934.88;;;16.08;68.94
69630;BME280;56857;52.212;5.496;2022-09-30T12:35:25;100929.16;;;16.90;67.06
69630;BME280;56857;52.212;5.496;2022-09-30T12:48:43;100932.13;;;17.86;65.63
69630;BME280;56857;52.212;5.496;2022-09-30T12:51:20;100938.44;;;17.98;63.85
69630;BME280;56857;52.212;5.496;2022-09-30T12:53:50;100929.59;;;17.97;61.58
69630;BME280;56857;52.212;5.496;2022-09-30T12:56:18;100920.66;;;18.03;61.80
69630;BME280;56857;52.212;5.496;2022-09-30T12:58:51;100912.56;;;18.10;62.19
69630;BME280;56857;52.212;5.496;2022-09-30T13:01:29;100920.91;;;18.27;62.09
69630;BME280;56857;52.212;5.496;2022-09-30T13:14:29;100913.19;;;18.37;59.43
69630;BME280;56857;52.212;5.496;2022-09-30T13:27:43;100889.28;;;17.72;61.15
69630;BME280;56857;52.212;5.496;2022-09-30T13:32:48;100891.34;;;17.25;62.78
69630;BME280;56857;52.212;5.496;2022-09-30T13:38:20;100881.25;;;17.21;64.03
69630;BME280;56857;52.212;5.496;2022-09-30T13:40:57;100865.63;;;17.11;63.68
69630;BME280;56857;52.212;5.496;2022-09-30T13:43:41;100868.53;;;17.09;63.79
69630;BME280;56857;52.212;5.496;2022-09-30T13:49:24;100867.53;;;16.97;64.15
69630;BME280;56857;52.212;5.496;2022-09-30T13:51:53;100857.66;;;16.91;64.13
69630;BME280;56857;52.212;5.496;2022-09-30T13:54:25;100865.31;;;16.87;64.39
69630;BME280;56857;52.212;5.496;2022-09-30T13:56:53;100859.56;;;16.84;64.54
69630;BME280;56857;52.212;5.496;2022-09-30T14:02:07;100858.94;;;16.75;65.28
69630;BME280;56857;52.212;5.496;2022-09-30T14:18:49;100857.53;;;16.39;64.85
69630;BME280;56857;52.212;5.496;2022-09-30T14:21:35;100849.72;;;16.31;64.93
69630;BME280;56857;52.212;5.496;2022-09-30T14:24:13;100839.03;;;16.18;65.41
69630;BME280;56857;52.212;5.496;2022-09-30T14:29:21;100843.56;;;16.17;66.44
69630;BME280;56857;52.212;5.496;2022-09-30T14:31:50;100844.56;;;16.10;66.70
69630;BME280;56857;52.212;5.496;2022-09-30T14:34:18;100838.81;;;16.06;67.02
69630;BME280;56857;52.212;5.496;2022-09-30T14:36:45;100843.34;;;15.99;67.12
69630;BME280;56857;52.212;5.496;2022-09-30T14:39:22;100848.69;;;15.92;67.42
69630;BME280;56857;52.212;5.496;2022-09-30T14:41:58;100838.00;;;15.86;67.33
69630;BME280;56857;52.212;5.496;2022-09-30T14:44:26;100815.97;;;15.77;67.09
69630;BME280;56857;52.212;5.496;2022-09-30T14:46:52;100838.59;;;15.81;67.30
69630;BME280;56857;52.212;5.496;2022-09-30T14:49:20;100826.25;;;15.73;67.49
69630;BME280;56857;52.212;5.496;2022-09-30T14:51:50;100812.50;;;15.70;67.35
69630;BME280;56857;52.212;5.496;2022-09-30T14:54:22;100822.16;;;15.78;67.23
69630;BME280;56857;52.212;5.496;2022-09-30T14:56:49;100822.34;;;15.76;67.22
69630;BME280;56857;52.212;5.496;2022-09-30T14:59:26;100818.66;;;15.77;67.19
69630;BME280;56857;52.212;5.496;2022-09-30T15:01:58;100813.72;;;15.74;67.14
69630;BME280;56857;52.212;5.496;2022-09-30T15:04:39;100810.22;;;15.73;66.86
69630;BME280;56857;52.212;5.496;2022-09-30T15:07:10;100823.59;;;15.87;67.70
69630;BME280;56857;52.212;5.496;2022-09-30T15:09:43;100824.41;;;15.87;67.28
69630;BME280;56857;52.212;5.496;2022-09-30T15:12:12;100815.56;;;15.80;67.56
69630;BME280;56857;52.212;5.496;2022-09-30T15:14:55;100820.28;;;15.78;67.43
69630;BME280;56857;52.212;5.496;2022-09-30T15:17:29;100832.22;;;15.75;67.72
69630;BME280;56857;52.212;5.496;2022-09-30T15:19:59;100826.41;;;15.65;67.62
69630;BME280;56857;52.212;5.496;2022-09-30T15:22:26;100826.81;;;15.62;66.49
69630;BME280;56857;52.212;5.496;2022-09-30T15:24:56;100830.28;;;15.56;66.70
69630;BME280;56857;52.212;5.496;2022-09-30T15:27:32;100834.81;;;15.56;66.41
69630;BME280;56857;52.212;5.496;2022-09-30T15:30:21;100832.31;;;15.47;66.42
69630;BME280;56857;52.212;5.496;2022-09-30T15:32:56;100838.91;;;15.45;66.44
69630;BME280;56857;52.212;5.496;2022-09-30T15:35:23;100837.03;;;15.39;66.48
69630;BME280;56857;52.212;5.496;2022-09-30T15:38:06;100837.63;;;15.27;66.69
69630;BME280;56857;52.212;5.496;2022-09-30T15:40:35;100833.28;;;15.20;66.91
69630;BME280;56857;52.212;5.496;2022-09-30T15:43:03;100836.78;;;15.20;67.04
69630;BME280;56857;52.212;5.496;2022-09-30T15:45:41;100839.41;;;15.14;67.14
69630;BME280;56857;52.212;5.496;2022-09-30T15:50:55;100839.53;;;14.92;67.14
69630;BME280;56857;52.212;5.496;2022-09-30T15:53:29;100846.72;;;14.92;67.45
69630;BME280;56857;52.212;5.496;2022-09-30T15:55:59;100830.44;;;14.80;67.76
69630;BME280;56857;52.212;5.496;2022-09-30T15:59:07;100843.13;;;14.78;68.59
69630;BME280;56857;52.212;5.496;2022-09-30T16:01:55;100835.47;;;14.68;68.66
69630;BME280;56857;52.212;5.496;2022-09-30T16:04:26;100832.59;;;14.63;68.85
69630;BME280;56857;52.212;5.496;2022-09-30T16:07:08;100835.22;;;14.56;68.92
69630;BME280;56857;52.212;5.496;2022-09-30T16:09:47;100841.38;;;14.57;69.26
69630;BME280;56857;52.212;5.496;2022-09-30T16:12:23;100829.66;;;14.51;69.41